Time;durP1;ratioP1;P1;durP2;ratioP2;P2;SDS_P1;SDS_P2;PMS_P1;PMS_P2;Temp;Humidity;BMP_temperature;BMP_pressure;BME280_temperature;BME280_humidity;BME280_pressure;Samples;Min_cycle;Max_cycle;Signal;HPM_P1;HPM_P2
2023/05/20 04:01:02;;;;;;;3.97;2.38;;;13.70;99.90;;;;;;5638583;23;20055;-66
2023/05/20 04:03:27;;;;;;;5.10;2.50;;;13.60;99.90;;;;;;4934090;29;20024;-66
2023/05/20 04:05:53;;;;;;;4.93;2.78;;;13.60;99.90;;;;;;4921037;29;20038;-66
2023/05/20 04:08:20;;;;;;;5.37;2.90;;;13.50;99.90;;;;;;4933788;29;20489;-66
2023/05/20 04:10:46;;;;;;;5.22;2.65;;;13.50;99.90;;;;;;4939476;29;20026;-66
2023/05/20 04:13:12;;;;;;;7.33;3.33;;;13.50;99.90;;;;;;4954046;29;20032;-66
2023/05/20 04:15:37;;;;;;;4.68;2.47;;;13.60;99.90;;;;;;4939636;29;20032;-65
2023/05/20 04:18:07;;;;;;;7.80;2.97;;;13.60;99.90;;;;;;4938969;29;20063;-64
2023/05/20 04:20:32;;;;;;;5.68;2.78;;;13.60;99.90;;;;;;4939010;29;20036;-65
2023/05/20 04:22:58;;;;;;;8.57;2.70;;;13.60;99.90;;;;;;4939048;29;20388;-64
2023/05/20 04:25:24;;;;;;;3.97;2.50;;;13.60;99.90;;;;;;4939113;29;20028;-63
2023/05/20 04:27:52;;;;;;;5.80;2.97;;;13.60;99.90;;;;;;4939051;29;20389;-63
2023/05/20 04:30:20;;;;;;;5.65;3.10;;;13.60;99.90;;;;;;4939639;29;20032;-64
2023/05/20 04:32:47;;;;;;;4.88;2.95;;;13.70;99.90;;;;;;4937756;29;20039;-64
2023/05/20 04:35:13;;;;;;;5.07;2.90;;;13.70;99.90;;;;;;4939110;29;20028;-64
2023/05/20 04:37:40;;;;;;;5.82;2.60;;;13.80;99.90;;;;;;4938998;29;20028;-63
2023/05/20 04:40:08;;;;;;;7.22;3.28;;;13.80;99.90;;;;;;4939066;29;20111;-64
2023/05/20 04:42:33;;;;;;;4.10;2.70;;;13.80;99.90;;;;;;4939271;29;20036;-63
2023/05/20 04:45:00;;;;;;;8.73;3.20;;;13.80;99.90;;;;;;4939143;29;20019;-65
2023/05/20 04:47:27;;;;;;;7.85;2.85;;;13.80;99.90;;;;;;4936610;29;20056;-64
2023/05/20 04:49:56;;;;;;;8.05;3.00;;;13.80;99.90;;;;;;4938105;29;20038;-65
2023/05/20 04:52:23;;;;;;;5.85;2.92;;;13.80;99.90;;;;;;4938420;29;20040;-65
2023/05/20 04:54:49;;;;;;;4.03;2.38;;;13.80;99.90;;;;;;4943243;29;20032;-64
2023/05/20 04:57:19;;;;;;;6.47;3.47;;;13.80;99.90;;;;;;4945611;29;20023;-65
2023/05/20 04:59:46;;;;;;;6.30;3.30;;;13.90;99.90;;;;;;4943187;29;20028;-64
2023/05/20 05:02:11;;;;;;;;;;;13.90;99.90;;;;;;4922539;29;20078;-63
2023/05/20 05:04:37;;;;;;;6.97;2.97;;;13.90;99.90;;;;;;4919653;29;20376;-62
2023/05/20 05:07:04;;;;;;;6.70;2.90;;;13.90;99.90;;;;;;4922973;29;20086;-65
2023/05/20 05:09:29;;;;;;;4.28;2.65;;;14.00;99.90;;;;;;4938411;29;20421;-65
2023/05/20 05:11:55;;;;;;;7.28;3.78;;;13.90;99.90;;;;;;4938074;29;20070;-64
2023/05/20 05:14:21;;;;;;;5.43;3.27;;;14.00;99.90;;;;;;4936894;29;20401;-64
2023/05/20 05:16:46;;;;;;;5.97;2.97;;;14.10;99.90;;;;;;4938028;29;20039;-65
2023/05/20 05:19:12;;;;;;;7.50;3.17;;;14.10;99.90;;;;;;4936768;29;20239;-63
2023/05/20 05:21:38;;;;;;;6.88;3.75;;;14.10;99.90;;;;;;4953748;29;20083;-64
2023/05/20 05:24:05;;;;;;;5.55;3.42;;;14.20;99.90;;;;;;4938431;29;20051;-64
2023/05/20 05:26:30;;;;;;;6.15;3.28;;;14.30;99.90;;;;;;4937855;29;20485;-64
2023/05/20 05:28:56;;;;;;;8.87;3.00;;;14.40;99.90;;;;;;4937840;29;20028;-64
2023/05/20 05:31:21;;;;;;;3.93;2.80;;;14.50;99.90;;;;;;4937750;29;20038;-64
2023/05/20 05:33:47;;;;;;;5.45;2.75;;;14.60;99.90;;;;;;4937810;29;20024;-64
2023/05/20 05:36:13;;;;;;;6.35;3.10;;;14.70;99.90;;;;;;4934717;29;20035;-64
2023/05/20 05:38:38;;;;;;;7.63;3.40;;;14.80;99.90;;;;;;4933893;29;20580;-65
2023/05/20 05:41:04;;;;;;;5.80;3.00;;;14.70;99.90;;;;;;4926665;29;20028;-64
2023/05/20 05:43:30;;;;;;;5.53;3.03;;;14.80;99.90;;;;;;4936241;29;20367;-64
2023/05/20 05:45:55;;;;;;;5.22;2.97;;;14.80;99.90;;;;;;4931899;29;20039;-66
2023/05/20 05:48:22;;;;;;;5.10;3.23;;;14.80;99.90;;;;;;4927769;29;20028;-64
2023/05/20 05:50:47;;;;;;;6.18;2.95;;;14.80;99.90;;;;;;4938043;29;20027;-65
2023/05/20 05:53:13;;;;;;;7.35;3.40;;;14.80;99.90;;;;;;4938137;29;20051;-65
2023/05/20 05:55:38;;;;;;;4.47;3.03;;;14.90;99.90;;;;;;4939282;29;20028;-65
2023/05/20 05:58:04;;;;;;;9.53;3.77;;;15.00;99.90;;;;;;4940023;29;20263;-66
2023/05/20 06:00:29;;;;;;;6.53;3.37;;;15.00;99.90;;;;;;4940294;29;20279;-67
2023/05/20 06:02:55;;;;;;;5.30;3.23;;;15.10;99.90;;;;;;4938571;29;20058;-68
2023/05/20 06:05:22;;;;;;;4.40;3.08;;;15.10;99.90;;;;;;4930918;29;20048;-68
2023/05/20 06:07:47;;;;;;;6.77;3.10;;;15.10;99.90;;;;;;4923000;29;20111;-67
2023/05/20 06:10:13;;;;;;;4.43;3.10;;;15.10;99.90;;;;;;4932198;29;20027;-68
2023/05/20 06:12:39;;;;;;;;;;;15.20;99.90;;;;;;4923186;29;20287;-67
2023/05/20 06:15:06;;;;;;;6.97;3.35;;;15.20;99.90;;;;;;4929069;29;19907;-69
2023/05/20 06:17:31;;;;;;;5.53;3.15;;;15.10;99.90;;;;;;4928653;29;20038;-67
2023/05/20 06:19:57;;;;;;;5.17;3.20;;;15.10;99.90;;;;;;4930072;29;20036;-67
2023/05/20 06:22:23;;;;;;;6.20;2.97;;;15.10;99.90;;;;;;4928431;29;20283;-68
2023/05/20 06:24:49;;;;;;;8.00;2.90;;;15.10;99.90;;;;;;4927532;29;20265;-68
2023/05/20 06:27:15;;;;;;;5.88;3.00;;;15.20;99.90;;;;;;4927328;29;20100;-68
2023/05/20 06:29:40;;;;;;;3.85;3.10;;;15.30;99.90;;;;;;4935394;29;20159;-68
2023/05/20 06:32:07;;;;;;;5.90;3.40;;;15.50;99.90;;;;;;4936402;29;20105;-67
2023/05/20 06:34:32;;;;;;;4.22;2.90;;;15.80;99.90;;;;;;4935976;29;20263;-67
2023/05/20 06:36:58;;;;;;;5.33;3.37;;;16.00;99.90;;;;;;4930260;29;20469;-67
2023/05/20 06:39:24;;;;;;;5.68;2.88;;;16.20;99.90;;;;;;4928550;29;20335;-67
2023/05/20 06:41:50;;;;;;;5.15;2.90;;;16.40;99.90;;;;;;4933690;29;20079;-68
2023/05/20 06:44:16;;;;;;;5.70;3.40;;;16.70;99.90;;;;;;4933301;29;20016;-68
2023/05/20 06:46:42;;;;;;;6.70;3.30;;;16.80;99.90;;;;;;4936488;29;20095;-68
2023/05/20 06:49:07;;;;;;;5.07;3.30;;;17.00;99.90;;;;;;4936233;29;20259;-68
2023/05/20 06:51:33;;;;;;;5.07;3.13;;;17.20;99.90;;;;;;4936592;29;20086;-68
2023/05/20 06:53:58;;;;;;;6.50;2.83;;;17.30;99.90;;;;;;4935228;29;20584;-68
2023/05/20 06:56:24;;;;;;;5.47;3.10;;;17.20;99.90;;;;;;4928830;29;20284;-67
2023/05/20 06:58:50;;;;;;;3.67;3.13;;;17.30;99.90;;;;;;4926892;29;20092;-67
2023/05/20 07:01:15;;;;;;;8.30;3.60;;;17.30;99.90;;;;;;4927825;29;20032;-68
2023/05/20 07:03:43;;;;;;;6.87;3.00;;;17.40;99.90;;;;;;4935993;29;20032;-67
2023/05/20 07:06:08;;;;;;;5.40;3.08;;;17.60;99.90;;;;;;4931537;29;20769;-67
2023/05/20 07:08:34;;;;;;;8.32;3.67;;;17.80;99.90;;;;;;4928698;29;20028;-68
2023/05/20 07:11:00;;;;;;;7.50;3.40;;;17.80;99.90;;;;;;4927726;29;20064;-68
2023/05/20 07:13:25;;;;;;;6.85;3.92;;;17.80;99.90;;;;;;4933019;29;20030;-68
2023/05/20 07:15:51;;;;;;;7.35;3.58;;;17.50;99.90;;;;;;4927243;29;20059;-68
2023/05/20 07:18:17;;;;;;;7.53;3.58;;;17.30;99.90;;;;;;4930195;29;20139;-67
2023/05/20 07:20:43;;;;;;;8.23;3.47;;;17.20;99.90;;;;;;4922390;29;20048;-66
2023/05/20 07:23:09;;;;;;;7.15;3.67;;;17.20;99.90;;;;;;4937233;29;20039;-65
2023/05/20 07:25:34;;;;;;;10.32;3.83;;;17.20;99.90;;;;;;4937478;29;20031;-67
2023/05/20 07:28:00;;;;;;;5.78;3.78;;;17.20;99.90;;;;;;4939444;29;20024;-68
2023/05/20 07:30:26;;;;;;;6.32;3.50;;;17.20;99.90;;;;;;4953277;29;20067;-67
2023/05/20 07:32:51;;;;;;;4.85;3.83;;;17.30;99.90;;;;;;4937312;29;20036;-68
2023/05/20 07:35:17;;;;;;;7.22;3.67;;;17.40;99.90;;;;;;4934465;29;20036;-66
2023/05/20 07:37:43;;;;;;;5.18;3.78;;;17.60;99.90;;;;;;4937953;29;20048;-69
2023/05/20 07:40:09;;;;;;;5.10;3.03;;;17.70;99.90;;;;;;4937646;29;20103;-66
2023/05/20 07:42:34;;;;;;;5.70;3.78;;;17.90;99.90;;;;;;4935818;29;20055;-66
2023/05/20 07:45:00;;;;;;;5.28;3.47;;;18.30;99.90;;;;;;4950713;29;20020;-66
2023/05/20 07:47:25;;;;;;;6.07;3.97;;;18.50;99.90;;;;;;4936162;29;20478;-67
2023/05/20 07:49:51;;;;;;;6.03;3.58;;;18.70;99.90;;;;;;4935401;29;20031;-66
2023/05/20 07:52:16;;;;;;;5.55;3.28;;;18.80;99.90;;;;;;4938158;29;20388;-66
2023/05/20 07:54:42;;;;;;;7.03;3.95;;;18.80;99.90;;;;;;4941637;29;20044;-67
2023/05/20 07:57:07;;;;;;;5.43;3.45;;;18.80;99.90;;;;;;4939007;29;20043;-67
2023/05/20 07:59:33;;;;;;;5.90;4.03;;;18.90;99.90;;;;;;4925438;29;20028;-66
2023/05/20 08:01:58;;;;;;;5.10;3.65;;;18.90;99.90;;;;;;4928812;29;20984;-66
2023/05/20 08:04:25;;;;;;;6.10;4.00;;;19.00;99.90;;;;;;4932693;29;20040;-67
2023/05/20 08:06:52;;;;;;;5.43;3.38;;;19.40;99.90;;;;;;4949614;29;20028;-67
2023/05/20 08:09:18;;;;;;;5.75;3.85;;;19.60;99.90;;;;;;4950785;29;20400;-67
2023/05/20 08:11:44;;;;;;;4.75;3.72;;;20.00;99.90;;;;;;4917163;29;20124;-67
2023/05/20 08:14:09;;;;;;;15.70;11.30;;;20.30;99.90;;;;;;4916577;29;20467;-67
2023/05/20 08:16:36;;;;;;;6.20;3.63;;;20.40;99.90;;;;;;4916544;29;20071;-67
2023/05/20 08:19:01;;;;;;;5.80;4.13;;;20.70;99.70;;;;;;4915053;29;20032;-66
2023/05/20 08:21:27;;;;;;;5.80;3.63;;;20.60;99.90;;;;;;4918733;29;20513;-68
2023/05/20 08:23:53;;;;;;;6.15;4.07;;;20.40;99.90;;;;;;4920805;29;20036;-67
2023/05/20 08:26:18;;;;;;;8.48;4.03;;;20.20;99.90;;;;;;4930370;29;20479;-67
2023/05/20 08:28:44;;;;;;;5.53;3.83;;;20.10;99.90;;;;;;4935087;29;20365;-67
2023/05/20 08:31:09;;;;;;;7.13;4.60;;;20.30;99.90;;;;;;4920331;29;20394;-68
2023/05/20 08:33:35;;;;;;;6.03;4.53;;;20.80;99.30;;;;;;4924119;29;20032;-68
2023/05/20 08:36:01;;;;;;;5.20;4.40;;;20.50;99.50;;;;;;4939894;29;20031;-67
2023/05/20 08:38:26;;;;;;;4.80;4.30;;;20.30;99.60;;;;;;4937737;29;20121;-69
2023/05/20 08:40:55;;;;;;;7.78;4.93;;;19.80;99.90;;;;;;4938670;29;20035;-66
2023/05/20 08:43:22;;;;;;;6.78;4.50;;;19.70;99.90;;;;;;4938935;29;20517;-68
2023/05/20 08:45:48;;;;;;;6.95;4.72;;;21.10;99.60;;;;;;4937797;29;20366;-67
2023/05/20 08:48:16;;;;;;;;;;;22.90;96.90;;;;;;4938050;29;20035;-70
2023/05/20 08:50:42;;;;;;;6.35;3.70;;;23.90;94.70;;;;;;4934788;29;19946;-68
2023/05/20 08:53:08;;;;;;;7.03;4.20;;;25.50;93.30;;;;;;4936585;29;20047;-68
2023/05/20 08:55:41;;;;;;;;;;;27.00;90.40;;;;;;4923490;29;20481;-66
2023/05/20 08:58:06;;;;;;;6.35;3.75;;;27.30;87.70;;;;;;4925031;29;19918;-68
2023/05/20 09:00:32;;;;;;;7.05;3.72;;;28.30;84.10;;;;;;4920232;29;20028;-68
2023/05/20 09:02:59;;;;;;;5.32;4.32;;;29.20;82.20;;;;;;4919578;29;20482;-68
2023/05/20 09:05:25;;;;;;;6.38;4.10;;;30.00;78.60;;;;;;4936468;29;20020;-68
2023/05/20 09:07:50;;;;;;;5.65;3.85;;;30.50;76.30;;;;;;4938235;29;20034;-67
2023/05/20 09:10:16;;;;;;;5.00;4.10;;;30.40;74.40;;;;;;4938358;29;20031;-67
2023/05/20 09:12:41;;;;;;;5.07;3.63;;;29.80;75.70;;;;;;4938066;29;20036;-67
2023/05/20 09:15:07;;;;;;;4.32;3.92;;;30.40;74.80;;;;;;4937972;29;20500;-67
2023/05/20 09:17:37;;;;;;;5.60;3.60;;;29.10;74.70;;;;;;4936791;29;20039;-68
2023/05/20 09:20:09;;;;;;;6.18;3.95;;;27.70;77.30;;;;;;4936512;29;20655;-68
2023/05/20 09:22:35;;;;;;;4.20;3.80;;;27.50;78.90;;;;;;4937239;29;20024;-68
2023/05/20 09:25:01;;;;;;;10.88;4.03;;;28.10;77.70;;;;;;4936010;29;20063;-69
2023/05/20 09:27:26;;;;;;;5.63;4.20;;;28.30;76.80;;;;;;4936649;29;20103;-67
2023/05/20 09:29:52;;;;;;;5.95;4.20;;;27.50;76.80;;;;;;4930242;29;20115;-67
2023/05/20 09:32:20;;;;;;;6.30;4.00;;;26.40;79.40;;;;;;4933641;29;20031;-67
2023/05/20 09:34:46;;;;;;;6.30;4.25;;;25.40;81.10;;;;;;4936247;29;20024;-67
2023/05/20 09:37:16;;;;;;;7.57;5.20;;;24.40;83.50;;;;;;4938531;29;20071;-67
2023/05/20 09:40:06;;;;;;;4.70;4.20;;;23.60;85.70;;;;;;4937765;29;20496;-69
2023/05/20 09:42:46;;;;;;;8.73;4.95;;;23.40;87.00;;;;;;4939034;29;20027;-69
2023/05/20 09:45:12;;;;;;;7.38;4.68;;;22.80;88.60;;;;;;4939254;29;20027;-68
2023/05/20 09:47:41;;;;;;;6.18;4.55;;;22.00;90.30;;;;;;4938556;29;20402;-69
2023/05/20 09:50:08;;;;;;;6.05;4.63;;;22.00;90.60;;;;;;4937001;29;20066;-70
2023/05/20 09:52:36;;;;;;;8.48;4.57;;;22.20;90.30;;;;;;4933297;29;20381;-67
2023/05/20 09:55:06;;;;;;;5.55;4.68;;;21.90;90.80;;;;;;4940337;29;20063;-68
2023/05/20 09:57:36;;;;;;;7.13;4.20;;;23.50;89.30;;;;;;4936880;29;20548;-68
2023/05/20 10:00:04;;;;;;;8.85;4.47;;;24.90;86.40;;;;;;4936690;29;20032;-68
2023/05/20 10:02:31;;;;;;;6.40;4.20;;;25.70;84.40;;;;;;4936399;29;20028;-68
2023/05/20 10:04:59;;;;;;;7.55;3.85;;;26.30;82.00;;;;;;4937274;29;20032;-68
2023/05/20 10:08:14;;;;;;;6.63;4.25;;;25.80;82.70;;;;;;4935100;29;20478;-68
2023/05/20 10:11:09;;;;;;;4.82;4.32;;;26.60;81.50;;;;;;4896357;29;20439;-70
2023/05/20 10:14:05;;;;;;;7.18;4.80;;;25.90;81.40;;;;;;4932986;29;20031;-69
2023/05/20 10:16:53;;;;;;;5.85;4.45;;;24.60;84.10;;;;;;4955385;23;20115;-63
2023/05/20 10:19:31;;;;;;;6.72;4.05;;;24.00;86.20;;;;;;4913144;29;20048;-65
2023/05/20 10:22:01;;;;;;;4.38;3.97;;;25.30;84.90;;;;;;4911588;29;20036;-67
2023/05/20 10:24:39;;;;;;;4.72;4.07;;;26.80;82.30;;;;;;4906522;29;20434;-66
2023/05/20 10:27:13;;;;;;;5.55;4.10;;;27.70;80.00;;;;;;4897529;29;20027;-67
2023/05/20 10:29:48;;;;;;;5.13;4.50;;;27.60;79.70;;;;;;4890249;29;20044;-66
2023/05/20 10:32:30;;;;;;;9.35;6.60;;;27.00;80.10;;;;;;4886659;29;20088;-68
2023/05/20 10:35:04;;;;;;;17.17;7.32;;;26.10;81.40;;;;;;4892605;29;20025;-68
2023/05/20 10:37:32;;;;;;;13.63;8.30;;;25.20;83.30;;;;;;4892960;29;20111;-67
2023/05/20 10:40:11;;;;;;;9.20;6.38;;;24.70;85.30;;;;;;4889981;29;20388;-67
2023/05/20 10:42:37;;;;;;;6.22;4.28;;;26.10;82.70;;;;;;4895053;29;20029;-68
2023/05/20 10:45:04;;;;;;;5.45;4.53;;;27.20;80.50;;;;;;4881989;29;20028;-68
2023/05/20 10:47:30;;;;;;;6.95;4.18;;;27.60;78.90;;;;;;4898399;29;20028;-67
2023/05/20 10:49:57;;;;;;;4.78;4.07;;;27.20;78.50;;;;;;4898381;29;20124;-68
2023/05/20 10:52:23;;;;;;;5.80;4.45;;;25.80;80.80;;;;;;4897733;29;20024;-66
2023/05/20 10:54:58;;;;;;;6.95;4.43;;;24.20;83.50;;;;;;4898214;29;20032;-67
2023/05/20 10:57:27;;;;;;;6.82;4.60;;;23.50;85.60;;;;;;4895723;29;20020;-65
2023/05/20 10:59:54;;;;;;;4.97;3.90;;;23.00;86.40;;;;;;4895607;29;20444;-64
2023/05/20 11:02:25;;;;;;;6.72;4.22;;;23.10;86.30;;;;;;4894565;29;20075;-67
2023/05/20 11:04:52;;;;;;;6.43;4.57;;;23.80;85.80;;;;;;4897086;29;20021;-65
2023/05/20 11:07:30;;;;;;;5.43;3.83;;;24.90;83.10;;;;;;4889922;29;20036;-67
2023/05/20 11:09:57;;;;;;;4.90;4.30;;;25.10;82.80;;;;;;4913022;29;20032;-66
2023/05/20 11:12:24;;;;;;;6.78;4.35;;;24.90;83.20;;;;;;4909239;29;20080;-67
2023/05/20 11:14:50;;;;;;;8.18;4.75;;;24.40;84.40;;;;;;4883622;29;20029;-67
2023/05/20 11:17:16;;;;;;;;;;;24.10;85.00;;;;;;4888787;29;20024;-67
2023/05/20 11:19:42;;;;;;;7.07;4.37;;;23.50;86.10;;;;;;4893150;29;19911;-65
2023/05/20 11:22:07;;;;;;;;;;;23.60;86.10;;;;;;4898909;29;20036;-66
2023/05/20 11:24:33;;;;;;;5.55;4.45;;;23.80;86.10;;;;;;4898399;29;19958;-67
2023/05/20 11:26:59;;;;;;;;;;;23.60;86.30;;;;;;4899849;29;20529;-67
2023/05/20 11:29:25;;;;;;;8.43;4.73;;;23.40;87.10;;;;;;4899787;29;19913;-66
2023/05/20 11:31:51;;;;;;;;;;;23.40;87.50;;;;;;4900705;29;20261;-66
2023/05/20 11:34:21;;;;;;;6.18;4.30;;;23.40;87.90;;;;;;4899756;29;19908;-67
2023/05/20 11:36:49;;;;;;;5.43;4.20;;;23.40;87.70;;;;;;4899394;29;20512;-67
2023/05/20 11:39:15;;;;;;;4.40;4.00;;;23.40;87.50;;;;;;4898956;29;20029;-67
2023/05/20 11:41:41;;;;;;;4.57;4.18;;;23.40;88.30;;;;;;4899259;29;20029;-67
2023/05/20 11:44:13;;;;;;;4.97;4.47;;;23.30;87.20;;;;;;4897766;29;20076;-67
2023/05/20 11:46:44;;;;;;;6.72;4.55;;;23.10;87.60;;;;;;4897840;29;20028;-67
2023/05/20 11:49:12;;;;;;;5.75;4.40;;;23.10;88.40;;;;;;4898687;29;20052;-67
2023/05/20 11:51:38;;;;;;;5.82;4.70;;;23.00;88.60;;;;;;4898746;29;20443;-67
2023/05/20 11:54:06;;;;;;;5.65;4.80;;;23.00;88.70;;;;;;4898751;29;20107;-67
2023/05/20 11:56:33;;;;;;;4.53;4.13;;;23.00;88.60;;;;;;4900942;29;20024;-66
2023/05/20 11:59:00;;;;;;;6.68;4.53;;;23.10;88.60;;;;;;4902795;29;20055;-68
2023/05/20 12:01:29;;;;;;;4.50;4.10;;;22.90;89.10;;;;;;4902357;29;20024;-68
2023/05/20 12:03:54;;;;;;;5.07;4.45;;;22.70;89.70;;;;;;4901297;29;20079;-66
2023/05/20 12:06:20;;;;;;;6.20;4.68;;;22.70;90.10;;;;;;4901993;29;20414;-66
2023/05/20 12:08:46;;;;;;;;;;;22.70;89.30;;;;;;4902369;29;20049;-67
2023/05/20 12:11:12;;;;;;;6.95;4.32;;;22.80;89.00;;;;;;4902085;29;19907;-67
2023/05/20 12:13:38;;;;;;;7.38;4.22;;;23.00;88.50;;;;;;4900730;29;20485;-62
2023/05/20 12:16:07;;;;;;;5.30;4.38;;;23.20;88.30;;;;;;4901453;29;20036;-66
2023/05/20 12:18:33;;;;;;;8.13;4.80;;;23.30;88.10;;;;;;4899504;29;20037;-65
2023/05/20 12:20:59;;;;;;;6.30;4.88;;;23.40;88.80;;;;;;4901916;29;20039;-64
2023/05/20 12:23:25;;;;;;;7.75;4.25;;;23.30;89.70;;;;;;4902518;29;20035;-63
2023/05/20 12:25:51;;;;;;;6.80;4.28;;;23.20;89.80;;;;;;4902535;29;20029;-64
2023/05/20 12:28:16;;;;;;;;;;;23.30;88.90;;;;;;4902524;29;20021;-65
2023/05/20 12:30:42;;;;;;;5.32;4.60;;;23.50;88.70;;;;;;4901634;29;20357;-63
2023/05/20 12:33:08;;;;;;;;;;;23.60;88.30;;;;;;4901314;29;20032;-64
2023/05/20 12:35:37;;;;;;;6.00;4.18;;;23.70;88.00;;;;;;4901589;29;19907;-65
2023/05/20 12:38:02;;;;;;;5.85;4.63;;;23.60;88.40;;;;;;4900845;29;20542;-65
2023/05/20 12:40:28;;;;;;;6.95;4.70;;;23.70;88.00;;;;;;4901010;29;20164;-64
2023/05/20 12:42:53;;;;;;;;;;;23.80;88.50;;;;;;4901109;29;20036;-66
2023/05/20 12:45:19;;;;;;;6.30;4.53;;;23.60;87.70;;;;;;4900836;29;19907;-65
2023/05/20 12:47:44;;;;;;;;;;;23.50;87.70;;;;;;4900602;29;20032;-66
2023/05/20 12:50:10;;;;;;;6.65;4.53;;;23.40;88.30;;;;;;4900680;29;20360;-66
2023/05/20 12:52:36;;;;;;;;;;;23.50;88.80;;;;;;4901072;29;20025;-66
2023/05/20 12:55:02;;;;;;;6.03;5.10;;;23.50;89.00;;;;;;4900544;29;19994;-66
2023/05/20 12:57:28;;;;;;;5.88;4.70;;;23.60;88.60;;;;;;4900948;29;20036;-66
2023/05/20 12:59:53;;;;;;;6.60;4.40;;;23.70;89.00;;;;;;4900876;29;20371;-66
2023/05/20 13:02:19;;;;;;;;;;;23.60;88.70;;;;;;4915397;29;20028;-66
2023/05/20 13:04:45;;;;;;;5.70;4.30;;;23.50;88.60;;;;;;4899850;29;19907;-66
2023/05/20 13:07:10;;;;;;;5.28;4.55;;;23.40;89.10;;;;;;4899371;29;20466;-66
2023/05/20 13:09:36;;;;;;;5.25;4.75;;;23.60;89.40;;;;;;4900077;29;20041;-66
2023/05/20 13:12:02;;;;;;;5.32;4.65;;;23.60;89.10;;;;;;4901795;29;20369;-67
2023/05/20 13:14:28;;;;;;;;;;;23.70;88.40;;;;;;4902114;29;20442;-66
2023/05/20 13:16:54;;;;;;;5.03;4.50;;;23.60;88.00;;;;;;4900334;29;19978;-66
2023/05/20 13:19:23;;;;;;;5.32;4.55;;;23.50;88.20;;;;;;4900080;29;20052;-66
2023/05/20 13:21:50;;;;;;;5.95;4.30;;;23.50;88.70;;;;;;4899983;29;20040;-66
2023/05/20 13:24:16;;;;;;;5.45;4.95;;;23.60;89.20;;;;;;4900059;29;20032;-66
2023/05/20 13:26:42;;;;;;;6.55;4.97;;;23.70;89.20;;;;;;4900152;29;20025;-65
2023/05/20 13:29:08;;;;;;;5.35;4.35;;;23.70;88.00;;;;;;4900221;29;20032;-65
2023/05/20 13:31:33;;;;;;;;;;;23.60;88.00;;;;;;4900576;29;20390;-66
2023/05/20 13:33:59;;;;;;;6.57;5.30;;;23.60;88.50;;;;;;4899476;29;20026;-65
2023/05/20 13:36:25;;;;;;;;;;;23.70;88.60;;;;;;4900340;29;20024;-65
2023/05/20 13:38:51;;;;;;;9.15;5.13;;;23.70;88.80;;;;;;4900055;29;20383;-65
2023/05/20 13:41:16;;;;;;;;;;;23.70;87.90;;;;;;4900155;29;20028;-65
2023/05/20 13:43:42;;;;;;;6.97;4.80;;;23.60;87.40;;;;;;4899759;29;20002;-67
2023/05/20 13:46:07;;;;;;;;;;;23.40;88.30;;;;;;4900716;29;20037;-66
2023/05/20 13:48:33;;;;;;;6.63;4.78;;;23.50;89.10;;;;;;4899337;29;19959;-66
2023/05/20 13:51:00;;;;;;;5.65;4.90;;;23.60;89.00;;;;;;4900537;29;20032;-66
2023/05/20 13:53:26;;;;;;;5.90;5.15;;;23.50;89.10;;;;;;4900473;29;20033;-66
2023/05/20 13:55:52;;;;;;;6.60;4.70;;;23.40;88.80;;;;;;4898671;29;20080;-66
2023/05/20 13:58:17;;;;;;;7.53;5.90;;;23.40;89.70;;;;;;4899675;29;20390;-66
2023/05/20 14:00:43;;;;;;;6.13;5.38;;;23.60;89.20;;;;;;4899412;29;20032;-66
2023/05/20 14:03:09;;;;;;;;;;;23.60;88.20;;;;;;4898307;29;20032;-66
2023/05/20 14:05:34;;;;;;;5.72;4.53;;;23.60;88.20;;;;;;4898027;29;19942;-66
2023/05/20 14:08:00;;;;;;;;;;;23.50;89.20;;;;;;4899979;29;20536;-66
2023/05/20 14:10:27;;;;;;;12.68;5.85;;;23.40;88.70;;;;;;4899222;29;19943;-64
2023/05/20 14:12:53;;;;;;;10.68;4.80;;;23.20;89.10;;;;;;4897929;29;20028;-68
2023/05/20 14:15:19;;;;;;;5.70;5.13;;;23.20;89.70;;;;;;4899118;29;20021;-66
2023/05/20 14:17:45;;;;;;;10.93;5.32;;;23.20;89.70;;;;;;4897416;29;20494;-66
2023/05/20 14:20:10;;;;;;;6.45;4.65;;;23.20;89.60;;;;;;4898897;29;20029;-65
2023/05/20 14:22:36;;;;;;;;;;;23.30;89.90;;;;;;4899555;29;20055;-65
2023/05/20 14:25:01;;;;;;;7.40;4.82;;;23.20;90.10;;;;;;4899011;29;19907;-66
2023/05/20 14:27:28;;;;;;;7.72;5.88;;;23.20;90.00;;;;;;4898704;29;20202;-67
2023/05/20 14:29:54;;;;;;;5.50;4.90;;;23.00;90.30;;;;;;4899432;29;20064;-67
2023/05/20 14:32:19;;;;;;;7.30;5.43;;;23.00;90.30;;;;;;4898733;29;20036;-65
2023/05/20 14:34:45;;;;;;;;;;;23.00;90.60;;;;;;4898994;29;20038;-65
2023/05/20 14:37:10;;;;;;;6.68;5.13;;;22.90;90.40;;;;;;4898652;29;19907;-66
2023/05/20 14:39:36;;;;;;;6.22;5.20;;;22.70;90.70;;;;;;4898750;29;20028;-67
2023/05/20 14:42:02;;;;;;;7.47;5.32;;;22.70;90.80;;;;;;4898873;29;20072;-67
2023/05/20 14:44:28;;;;;;;7.95;5.35;;;22.60;91.00;;;;;;4898577;29;20115;-66
2023/05/20 14:46:54;;;;;;;7.13;5.03;;;22.70;91.10;;;;;;4898521;29;20031;-66
2023/05/20 14:49:20;;;;;;;7.00;5.68;;;22.90;90.90;;;;;;4897166;29;20398;-67
2023/05/20 14:51:45;;;;;;;;;;;23.00;90.90;;;;;;4899141;29;20056;-68
2023/05/20 14:54:12;;;;;;;7.00;5.13;;;23.00;91.40;;;;;;4898297;29;20357;-67
2023/05/20 14:56:39;;;;;;;6.75;4.95;;;23.10;90.60;;;;;;4897315;29;20092;-67
2023/05/20 14:59:05;;;;;;;8.20;5.25;;;23.20;90.30;;;;;;4898917;29;20393;-67
2023/05/20 15:01:31;;;;;;;6.60;5.50;;;23.20;90.50;;;;;;4898371;29;20028;-66
2023/05/20 15:03:56;;;;;;;5.38;4.85;;;23.20;90.60;;;;;;4898317;29;20021;-66
2023/05/20 15:06:22;;;;;;;;;;;23.20;90.70;;;;;;4899017;29;20479;-65
2023/05/20 15:08:47;;;;;;;6.72;5.32;;;23.30;90.90;;;;;;4899430;29;19969;-65
2023/05/20 15:11:12;;;;;;;;;;;23.30;90.50;;;;;;4898953;29;20040;-66
2023/05/20 15:13:39;;;;;;;7.05;5.30;;;23.50;90.50;;;;;;4898180;29;19955;-66
2023/05/20 15:16:05;;;;;;;9.20;5.32;;;23.50;90.30;;;;;;4898295;29;20527;-66
2023/05/20 15:18:31;;;;;;;9.05;5.13;;;23.70;90.00;;;;;;4897722;29;20040;-66
2023/05/20 15:20:59;;;;;;;8.02;5.97;;;23.80;90.00;;;;;;4898348;29;20116;-66
2023/05/20 15:23:25;;;;;;;6.00;5.15;;;23.80;89.70;;;;;;4898517;29;20020;-66
2023/05/20 15:25:50;;;;;;;6.15;5.38;;;23.70;89.70;;;;;;4896989;29;20032;-67
2023/05/20 15:28:18;;;;;;;;;;;23.60;90.00;;;;;;4898842;29;20032;-66
2023/05/20 15:30:44;;;;;;;;;;;23.50;90.20;;;;;;4899666;29;19915;-66
2023/05/20 15:33:09;;;;;;;9.07;5.10;;;23.40;90.10;;;;;;4900456;29;19908;-66
2023/05/20 15:35:35;;;;;;;8.82;5.60;;;23.40;90.30;;;;;;4901909;29;20028;-66
2023/05/20 15:38:00;;;;;;;;;;;23.40;90.30;;;;;;4902481;29;20025;-65
2023/05/20 15:40:27;;;;;;;6.25;5.65;;;23.50;90.20;;;;;;4901707;29;20341;-66
2023/05/20 15:42:52;;;;;;;;;;;23.60;90.20;;;;;;4902298;29;20148;-66
2023/05/20 15:45:17;;;;;;;8.15;5.25;;;23.70;90.20;;;;;;4901941;29;19983;-65
2023/05/20 15:47:43;;;;;;;;;;;23.80;90.10;;;;;;4901945;29;20040;-66
2023/05/20 15:50:10;;;;;;;5.65;5.00;;;23.80;90.00;;;;;;4900693;29;19908;-67
2023/05/20 15:52:36;;;;;;;7.70;5.15;;;23.70;89.80;;;;;;4902161;29;20023;-67
2023/05/20 15:55:01;;;;;;;6.47;4.88;;;23.70;90.00;;;;;;4901843;29;20390;-66
2023/05/20 15:57:29;;;;;;;6.65;5.03;;;23.80;90.00;;;;;;4901680;29;20029;-67
2023/05/20 15:59:55;;;;;;;6.68;5.35;;;23.70;89.40;;;;;;4902053;29;20052;-65
2023/05/20 16:02:21;;;;;;;6.20;4.80;;;23.70;90.00;;;;;;4901852;29;20036;-67
2023/05/20 16:04:47;;;;;;;6.65;5.30;;;23.70;89.90;;;;;;4901310;29;20029;-65
2023/05/20 16:07:13;;;;;;;;;;;23.70;90.00;;;;;;4900454;29;20044;-65
2023/05/20 16:09:38;;;;;;;7.30;5.55;;;23.60;90.10;;;;;;4901314;29;19954;-67
2023/05/20 16:12:05;;;;;;;6.85;6.07;;;23.50;90.30;;;;;;4901646;29;20072;-66
2023/05/20 16:14:30;;;;;;;6.72;5.35;;;23.40;90.30;;;;;;4902129;29;20057;-67
2023/05/20 16:16:56;;;;;;;8.00;5.68;;;23.40;90.50;;;;;;4901312;29;20080;-66
2023/05/20 16:19:21;;;;;;;;;;;23.30;90.60;;;;;;4947020;23;20050;-63
2023/05/20 16:21:47;;;;;;;7.00;5.80;;;23.30;90.50;;;;;;4937563;29;19911;-64
2023/05/20 16:24:12;;;;;;;;;;;23.30;90.50;;;;;;4939644;29;20483;-65
2023/05/20 16:26:38;;;;;;;6.25;5.60;;;23.30;90.70;;;;;;4937796;29;19977;-65
2023/05/20 16:29:03;;;;;;;;;;;23.30;90.70;;;;;;4939336;29;20027;-65
2023/05/20 16:31:29;;;;;;;6.88;5.88;;;23.30;90.70;;;;;;4937863;29;19982;-65
2023/05/20 16:33:55;;;;;;;7.43;5.82;;;23.30;90.60;;;;;;4938773;29;20039;-65
2023/05/20 16:36:20;;;;;;;;;;;23.30;90.70;;;;;;4939315;29;20131;-65
2023/05/20 16:38:46;;;;;;;6.53;5.45;;;23.30;90.70;;;;;;4938879;29;20352;-65
2023/05/20 16:41:11;;;;;;;;;;;23.40;90.80;;;;;;4939566;29;20052;-64
2023/05/20 16:43:37;;;;;;;9.60;6.28;;;23.40;91.00;;;;;;4937643;29;19906;-65
2023/05/20 16:46:02;;;;;;;;;;;23.30;91.30;;;;;;4938233;29;20027;-65
2023/05/20 16:48:28;;;;;;;7.30;6.03;;;23.30;91.80;;;;;;4937169;29;19907;-65
2023/05/20 16:50:53;;;;;;;;;;;23.40;92.00;;;;;;4939031;29;20079;-65
2023/05/20 16:53:19;;;;;;;6.88;5.80;;;23.30;92.10;;;;;;4938642;29;19962;-65
2023/05/20 16:55:45;;;;;;;6.65;5.65;;;23.30;91.90;;;;;;4938778;29;20043;-65